Time;durP1;ratioP1;P1;durP2;ratioP2;P2;SDS_P1;SDS_P2;PMS_P1;PMS_P2;Temp;Humidity;BMP_temperature;BMP_pressure;BME280_temperature;BME280_humidity;BME280_pressure;Samples;Min_cycle;Max_cycle;Signal;HPM_P1;HPM_P2
2021/01/26 00:00:21;;;;;;;5.90;4.50;;;3.90;90.10;4.30;99798.00;;;;343427;28;91788;-86
2021/01/26 00:00:32;;;;;;;5.05;4.22;;;3.90;90.20;4.20;99787.00;;;;340132;28;84637;-87
2021/01/26 00:00:44;;;;;;;5.10;4.15;;;3.90;90.40;4.30;99792.00;;;;339777;28;91931;-87
2021/01/26 00:00:55;;;;;;;5.53;4.13;;;3.90;90.30;4.30;99790.00;;;;340267;28;83363;-87
2021/01/26 00:01:07;;;;;;;5.72;4.38;;;3.90;90.30;4.30;99787.00;;;;341187;28;89371;-87
2021/01/26 00:01:19;;;;;;;5.80;4.65;;;3.90;90.30;4.40;99781.00;;;;340269;28;83285;-87
2021/01/26 00:01:30;;;;;;;5.70;4.57;;;3.90;90.30;4.20;99798.00;;;;341175;28;92131;-87
2021/01/26 00:01:42;;;;;;;6.07;4.32;;;3.90;90.20;4.30;99796.00;;;;340088;28;84526;-87
2021/01/26 00:01:54;;;;;;;6.43;4.30;;;3.90;90.20;4.40;99788.00;;;;341233;28;91244;-87
2021/01/26 00:02:06;;;;;;;6.15;4.30;;;3.90;90.30;4.30;99791.00;;;;338606;28;84529;-87
2021/01/26 00:02:18;;;;;;;5.55;4.55;;;3.90;90.40;4.20;99797.00;;;;339726;28;90959;-87
2021/01/26 00:02:29;;;;;;;5.60;4.75;;;3.90;90.40;4.30;99796.00;;;;341394;28;83415;-87
2021/01/26 00:02:41;;;;;;;5.50;4.45;;;3.90;90.40;4.40;99796.00;;;;339641;28;90945;-87
2021/01/26 00:02:52;;;;;;;5.35;4.15;;;3.90;90.40;4.40;99779.00;;;;340079;28;84866;-87
2021/01/26 00:03:04;;;;;;;5.20;3.85;;;3.90;90.40;4.40;99798.00;;;;340410;28;91821;-88
2021/01/26 00:03:16;;;;;;;5.03;3.70;;;4.00;90.40;4.40;99787.00;;;;340082;28;82508;-87
2021/01/26 00:03:27;;;;;;;4.85;4.05;;;3.90;90.40;4.30;99788.00;;;;341285;28;89307;-88
2021/01/26 00:03:38;;;;;;;4.97;4.15;;;4.00;90.20;4.40;99792.00;;;;338877;28;84303;-87
2021/01/26 00:03:50;;;;;;;5.30;4.15;;;3.90;90.10;4.40;99795.00;;;;339717;28;91555;-87
2021/01/26 00:04:01;;;;;;;5.25;4.05;;;4.00;90.30;4.40;99795.00;;;;342950;28;84275;-87
2021/01/26 00:04:12;;;;;;;5.72;4.50;;;4.00;90.30;4.40;99792.00;;;;341189;28;91713;-87
2021/01/26 00:04:24;;;;;;;5.68;4.60;;;4.00;90.10;4.30;99788.00;;;;342834;28;83477;-87
2021/01/26 00:04:35;;;;;;;5.57;4.40;;;4.00;90.00;4.40;99798.00;;;;339836;28;91073;-88
2021/01/26 00:04:47;;;;;;;5.05;4.20;;;4.00;90.20;4.40;99797.00;;;;341486;28;84174;-87
2021/01/26 00:04:58;;;;;;;4.85;4.22;;;4.00;90.20;4.40;99794.00;;;;342436;28;88508;-87
2021/01/26 00:05:10;;;;;;;4.95;4.13;;;4.00;90.20;4.50;99794.00;;;;341409;28;83441;-87
2021/01/26 00:05:23;;;;;;;5.65;4.40;;;4.00;90.10;4.50;99802.00;;;;342594;28;91751;-87
2021/01/26 00:05:34;;;;;;;6.40;4.55;;;4.00;90.00;4.50;99794.00;;;;339957;28;83814;-87
2021/01/26 00:05:45;;;;;;;6.63;4.53;;;4.00;90.00;4.50;99799.00;;;;339829;28;89093;-87
2021/01/26 00:05:57;;;;;;;5.88;4.50;;;4.10;90.00;4.50;99800.00;;;;340091;28;84351;-87
2021/01/26 00:06:08;;;;;;;5.10;4.38;;;4.10;90.10;4.40;99800.00;;;;339782;28;91448;-87
2021/01/26 00:06:20;;;;;;;5.60;4.75;;;4.10;90.10;4.50;99804.00;;;;338772;28;84879;-87
2021/01/26 00:06:31;;;;;;;5.10;4.60;;;4.10;90.00;4.50;99800.00;;;;345271;28;89803;-87
2021/01/26 00:06:43;;;;;;;4.70;3.70;;;4.10;90.00;4.50;99805.00;;;;342882;28;85078;-87
2021/01/26 00:06:54;;;;;;;5.07;3.72;;;4.10;90.00;4.40;99790.00;;;;336999;28;91206;-87
2021/01/26 00:07:06;;;;;;;4.97;3.75;;;4.10;89.70;4.50;99798.00;;;;341438;28;83419;-87
2021/01/26 00:07:17;;;;;;;5.32;3.85;;;4.10;89.70;4.40;99801.00;;;;338461;28;92440;-87
2021/01/26 00:07:29;;;;;;;5.03;3.90;;;4.10;89.20;4.30;99795.00;;;;342839;28;84471;-87
2021/01/26 00:07:41;;;;;;;5.35;4.32;;;4.10;88.90;4.20;99797.00;;;;338440;28;92747;-87
2021/01/26 00:07:52;;;;;;;5.45;4.35;;;4.10;88.60;4.10;99801.00;;;;344129;28;84264;-87
2021/01/26 00:08:04;;;;;;;5.13;4.15;;;4.00;88.30;4.00;99797.00;;;;341786;28;91804;-87
2021/01/26 00:08:16;;;;;;;4.97;3.92;;;4.00;88.30;4.10;99803.00;;;;337739;28;83483;-87
2021/01/26 00:08:27;;;;;;;4.88;3.65;;;4.00;88.60;4.10;99800.00;;;;337064;28;91101;-87
2021/01/26 00:08:39;;;;;;;4.90;3.60;;;3.90;88.50;4.20;99802.00;;;;338971;28;83443;-87
2021/01/26 00:08:51;;;;;;;4.75;3.55;;;3.90;89.00;4.10;99801.00;;;;337119;28;92201;-87
2021/01/26 00:09:03;;;;;;;4.70;3.85;;;3.90;89.10;4.10;99804.00;;;;336752;28;84594;-87
2021/01/26 00:09:14;;;;;;;4.72;3.95;;;3.80;89.00;4.10;99804.00;;;;337222;28;91572;-87
2021/01/26 00:09:25;;;;;;;4.95;3.80;;;3.80;89.20;4.20;99801.00;;;;336254;28;84313;-87
2021/01/26 00:09:37;;;;;;;5.22;3.88;;;3.80;89.50;4.00;99808.00;;;;335910;28;88459;-87
2021/01/26 00:09:48;;;;;;;5.45;4.07;;;3.80;89.30;4.00;99806.00;;;;338796;28;83926;-87
2021/01/26 00:10:00;;;;;;;5.22;4.00;;;3.80;89.20;4.10;99803.00;;;;337228;28;90095;-87
2021/01/26 00:10:12;;;;;;;4.78;3.70;;;3.80;89.40;4.00;99800.00;;;;338489;28;84696;-87
2021/01/26 00:10:24;;;;;;;5.03;3.92;;;3.80;89.60;4.10;99806.00;;;;338505;28;90651;-87
2021/01/26 00:10:36;;;;;;;5.40;4.18;;;3.80;89.70;4.00;99797.00;;;;340135;28;85086;-87
2021/01/26 00:10:48;;;;;;;6.50;4.35;;;3.70;89.30;4.10;99804.00;;;;339784;28;92892;-87
2021/01/26 00:10:59;;;;;;;6.13;4.15;;;3.70;89.40;4.00;99799.00;;;;340951;28;82690;-87
2021/01/26 00:11:11;;;;;;;6.05;4.30;;;3.70;89.30;3.90;99802.00;;;;338162;28;91799;-87
2021/01/26 00:11:22;;;;;;;6.18;4.78;;;3.70;89.40;4.00;99804.00;;;;340246;28;84468;-88
2021/01/26 00:11:34;;;;;;;5.53;4.68;;;3.70;89.50;4.00;99808.00;;;;338392;28;91643;-87
2021/01/26 00:11:45;;;;;;;4.93;4.43;;;3.70;89.70;4.10;99805.00;;;;338701;28;84296;-87
2021/01/26 00:11:56;;;;;;;5.10;4.32;;;3.70;89.90;4.10;99795.00;;;;338491;28;91748;-87
2021/01/26 00:12:08;;;;;;;5.30;4.45;;;3.70;90.00;4.10;99792.00;;;;338626;28;83629;-87
2021/01/26 00:12:20;;;;;;;5.80;4.80;;;3.70;90.00;4.10;99802.00;;;;338537;28;89813;-87
2021/01/26 00:12:31;;;;;;;5.65;4.70;;;3.70;90.00;4.10;99799.00;;;;338843;28;83471;-87
2021/01/26 00:12:43;;;;;;;7.13;4.50;;;3.70;90.00;4.10;99803.00;;;;338483;28;90756;-87
2021/01/26 00:12:54;;;;;;;7.60;4.45;;;3.70;90.00;4.10;99791.00;;;;342832;28;85673;-87
2021/01/26 00:13:06;;;;;;;6.88;3.97;;;3.70;90.00;4.10;99803.00;;;;339758;28;89133;-88
2021/01/26 00:13:19;;;;;;;5.38;4.30;;;3.70;90.00;4.20;99807.00;;;;340009;28;82448;-87
2021/01/26 00:13:31;;;;;;;5.60;4.45;;;3.70;90.00;4.10;99794.00;;;;339865;28;91825;-87
2021/01/26 00:13:43;;;;;;;5.47;4.10;;;3.70;90.00;4.10;99803.00;;;;340108;28;83523;-87
2021/01/26 00:13:54;;;;;;;4.80;3.70;;;3.70;89.90;4.10;99805.00;;;;339633;28;90878;-87
2021/01/26 00:14:06;;;;;;;4.32;3.42;;;3.70;90.00;4.20;99800.00;;;;338179;28;83642;-87
2021/01/26 00:14:17;;;;;;;4.60;3.75;;;3.70;90.00;4.20;99799.00;;;;337481;28;91403;-87
2021/01/26 00:14:29;;;;;;;5.28;3.80;;;3.70;90.10;4.20;99804.00;;;;341402;28;83958;-87
2021/01/26 00:14:40;;;;;;;5.60;4.03;;;3.80;90.10;4.20;99796.00;;;;339855;28;90586;-87
2021/01/26 00:14:52;;;;;;;6.75;4.47;;;3.70;90.10;4.10;99808.00;;;;340214;28;84532;-87
2021/01/26 00:15:04;;;;;;;6.55;4.53;;;3.80;90.00;4.00;99800.00;;;;338985;28;91977;-87
2021/01/26 00:15:18;;;;;;;5.57;4.43;;;3.80;89.80;4.20;99807.00;;;;340187;28;83449;-87
2021/01/26 00:15:29;;;;;;;5.65;4.40;;;3.80;90.00;4.20;99801.00;;;;339891;28;90885;-87
2021/01/26 00:15:41;;;;;;;5.20;4.28;;;3.80;90.10;4.20;99799.00;;;;340025;28;84833;-86
2021/01/26 00:15:53;;;;;;;4.65;4.10;;;3.70;90.00;4.30;99803.00;;;;340996;28;92911;-87
2021/01/26 00:16:05;;;;;;;4.78;4.28;;;3.80;90.00;4.30;99795.00;;;;341644;28;83390;-88
2021/01/26 00:16:18;;;;;;;5.38;4.63;;;3.80;90.00;4.20;99800.00;;;;339865;28;90718;-87
2021/01/26 00:16:29;;;;;;;5.72;4.93;;;3.80;89.70;4.10;99807.00;;;;340146;28;84511;-87
2021/01/26 00:16:41;;;;;;;6.03;4.82;;;3.80;89.40;4.20;99797.00;;;;341254;28;88711;-87
2021/01/26 00:16:52;;;;;;;6.43;4.88;;;3.80;89.50;4.20;99804.00;;;;340209;28;84570;-87
2021/01/26 00:17:04;;;;;;;6.43;4.53;;;3.80;89.50;4.10;99805.00;;;;337999;28;91430;-87
2021/01/26 00:17:16;;;;;;;5.47;4.15;;;3.80;89.40;4.10;99807.00;;;;340169;28;83418;-87
2021/01/26 00:17:27;;;;;;;5.32;3.92;;;3.70;89.40;4.20;99798.00;;;;339845;28;88384;-87
2021/01/26 00:17:40;;;;;;;5.93;4.18;;;3.80;89.60;4.20;99804.00;;;;340110;28;83597;-87
2021/01/26 00:17:51;;;;;;;5.65;4.10;;;3.80;89.90;4.20;99807.00;;;;340788;28;91747;-87
2021/01/26 00:18:04;;;;;;;6.00;4.22;;;3.80;89.90;4.10;99810.00;;;;338796;28;85601;-87
2021/01/26 00:18:15;;;;;;;6.18;4.03;;;3.80;89.50;4.10;99809.00;;;;341224;28;91580;-87
2021/01/26 00:18:27;;;;;;;5.88;4.10;;;3.80;89.50;4.20;99822.00;;;;338815;28;83662;-87
2021/01/26 00:18:38;;;;;;;5.80;4.30;;;3.80;89.60;4.00;99811.00;;;;340920;28;90898;-87
2021/01/26 00:18:50;;;;;;;5.58;4.32;;;3.80;89.40;4.10;99820.00;;;;342854;28;83740;-87
2021/01/26 00:19:01;;;;;;;7.38;4.47;;;3.80;89.50;4.10;99813.00;;;;339729;28;91710;-87
2021/01/26 00:19:12;;;;;;;6.75;4.18;;;3.70;89.70;4.00;99812.00;;;;341531;28;83381;-87
2021/01/26 00:19:24;;;;;;;7.03;4.15;;;3.70;89.50;4.10;99811.00;;;;341173;28;91944;-87
2021/01/26 00:19:35;;;;;;;5.15;3.85;;;3.80;89.50;4.10;99804.00;;;;342888;28;84094;-87
2021/01/26 00:19:46;;;;;;;5.22;3.70;;;3.80;89.50;4.10;99819.00;;;;339391;28;92247;-87
2021/01/26 00:19:58;;;;;;;4.82;3.40;;;3.80;89.50;4.10;99821.00;;;;339773;28;83602;-87
2021/01/26 00:20:11;;;;;;;4.88;3.45;;;3.80;89.40;4.10;99819.00;;;;338555;28;90139;-87
2021/01/26 00:20:22;;;;;;;4.55;3.45;;;3.70;89.10;4.10;99813.00;;;;338882;28;83436;-87
2021/01/26 00:20:34;;;;;;;6.07;4.05;;;3.80;89.00;4.00;99811.00;;;;339328;28;91804;-87
2021/01/26 00:20:46;;;;;;;6.20;4.20;;;3.70;88.70;4.10;99812.00;;;;336329;28;83343;-87
2021/01/26 00:20:57;;;;;;;5.07;3.85;;;3.70;88.80;3.90;99801.00;;;;342531;28;91612;-87
2021/01/26 00:21:09;;;;;;;4.55;3.83;;;3.70;88.70;4.00;99803.00;;;;341334;28;85218;-87
2021/01/26 00:21:22;;;;;;;4.40;3.65;;;3.70;88.90;4.10;99807.00;;;;342264;28;91797;-87
2021/01/26 00:21:33;;;;;;;4.43;3.42;;;3.70;89.00;4.00;99809.00;;;;341565;28;83659;-87
2021/01/26 00:21:45;;;;;;;4.25;3.30;;;3.70;89.10;3.80;99806.00;;;;341021;28;92887;-87
2021/01/26 00:21:56;;;;;;;5.20;3.92;;;3.70;88.90;3.90;99803.00;;;;341271;28;83494;-87
2021/01/26 00:22:07;;;;;;;6.25;4.25;;;3.60;88.80;4.00;99812.00;;;;342642;28;87873;-87
2021/01/26 00:22:19;;;;;;;7.22;3.88;;;3.60;89.00;4.00;99810.00;;;;340196;28;83496;-87
2021/01/26 00:22:30;;;;;;;6.45;3.63;;;3.60;89.20;4.00;99811.00;;;;342462;28;91879;-87
2021/01/26 00:22:42;;;;;;;6.86;4.00;;;3.60;89.40;4.10;99809.00;;;;341543;28;84970;-87
2021/01/26 00:22:54;;;;;;;5.68;4.13;;;3.60;89.40;4.10;99812.00;;;;342503;28;91963;-87
2021/01/26 00:23:05;;;;;;;5.18;4.05;;;3.70;89.40;4.10;99817.00;;;;341995;28;87996;-87
2021/01/26 00:23:17;;;;;;;4.80;3.85;;;3.70;89.30;4.10;99825.00;;;;339285;28;90826;-87
2021/01/26 00:23:29;;;;;;;5.43;3.97;;;3.70;89.40;4.10;99808.00;;;;341428;28;84877;-87
2021/01/26 00:23:41;;;;;;;5.00;3.70;;;3.70;89.40;4.00;99813.00;;;;337158;28;90145;-87
2021/01/26 00:23:52;;;;;;;5.40;3.92;;;3.70;89.20;3.90;99820.00;;;;340080;28;84566;-87
2021/01/26 00:24:04;;;;;;;4.65;3.95;;;3.60;88.80;3.70;99813.00;;;;339133;28;91023;-87
2021/01/26 00:24:16;;;;;;;4.63;3.92;;;3.60;88.70;3.70;99813.00;;;;341523;28;83336;-86
2021/01/26 00:24:27;;;;;;;4.65;3.72;;;3.60;88.80;3.70;99821.00;;;;339608;28;89202;-87
2021/01/26 00:24:38;;;;;;;4.40;3.42;;;3.50;88.90;3.70;99824.00;;;;341557;28;83684;-87
2021/01/26 00:24:50;;;;;;;4.18;3.40;;;3.50;89.10;3.70;99812.00;;;;339748;28;92847;-87
2021/01/26 00:25:03;;;;;;;4.40;3.53;;;3.50;89.20;3.70;99808.00;;;;341486;28;84436;-87
2021/01/26 00:25:29;;;;;;;4.65;3.67;;;3.50;89.30;3.90;99819.00;;;;341124;28;92327;-87
2021/01/26 00:25:41;;;;;;;4.63;3.35;;;3.50;89.60;3.80;99819.00;;;;341358;28;85817;-87
2021/01/26 00:25:52;;;;;;;4.88;3.65;;;3.40;89.70;3.70;99825.00;;;;338404;28;92077;-87
2021/01/26 00:26:03;;;;;;;4.72;3.72;;;3.40;89.60;3.60;99819.00;;;;338113;28;83592;-87
2021/01/26 00:26:17;;;;;;;4.93;3.67;;;3.40;89.60;3.70;99811.00;;;;341053;28;90492;-87
2021/01/26 00:26:29;;;;;;;4.43;3.50;;;3.40;89.80;3.80;99819.00;;;;339878;28;84195;-86
2021/01/26 00:26:41;;;;;;;4.25;3.55;;;3.40;90.00;3.80;99813.00;;;;337995;28;92386;-87
2021/01/26 00:26:52;;;;;;;4.07;3.28;;;3.40;90.00;3.80;99808.00;;;;340284;28;83336;-87
2021/01/26 00:27:05;;;;;;;4.72;3.58;;;3.40;90.10;3.80;99813.00;;;;341744;28;90593;-87
2021/01/26 00:27:16;;;;;;;5.28;3.60;;;3.40;90.10;3.90;99819.00;;;;338750;28;84668;-87
2021/01/26 00:27:27;;;;;;;5.20;3.40;;;3.40;90.10;4.00;99822.00;;;;343912;28;91721;-87
2021/01/26 00:27:39;;;;;;;5.18;3.60;;;3.40;90.20;4.00;99818.00;;;;342884;28;84545;-87
2021/01/26 00:27:52;;;;;;;5.04;3.92;;;3.40;90.20;4.00;99825.00;;;;341041;28;92321;-86
2021/01/26 00:28:05;;;;;;;5.07;4.28;;;3.40;90.20;4.00;99820.00;;;;341482;28;85607;-87
2021/01/26 00:28:16;;;;;;;5.25;4.32;;;3.40;90.20;4.00;99811.00;;;;342568;28;90222;-87
2021/01/26 00:28:29;;;;;;;5.05;4.22;;;3.50;90.10;4.00;99809.00;;;;342839;28;84397;-87
2021/01/26 00:28:41;;;;;;;4.47;3.85;;;3.50;90.10;4.00;99811.00;;;;342473;28;92403;-87
2021/01/26 00:28:52;;;;;;;4.97;3.78;;;3.50;90.00;3.80;99820.00;;;;342799;28;83664;-87
2021/01/26 00:29:09;;;;;;;5.18;3.70;;;3.50;89.80;3.90;99817.00;;;;341994;28;89410;-87
2021/01/26 00:29:20;;;;;;;5.32;3.95;;;3.50;89.80;3.90;99819.00;;;;340030;28;83801;-87
2021/01/26 00:29:31;;;;;;;4.72;3.55;;;3.50;89.90;3.90;99806.00;;;;339024;28;91635;-87
2021/01/26 00:29:43;;;;;;;5.13;3.50;;;3.50;90.00;3.90;99819.00;;;;338749;28;84375;-88
2021/01/26 00:29:54;;;;;;;4.88;3.47;;;3.50;89.80;3.90;99819.00;;;;335790;28;90535;-87
2021/01/26 00:30:09;;;;;;;4.60;3.50;;;3.50;89.70;3.90;99820.00;;;;339667;28;84505;-87
2021/01/26 00:30:27;;;;;;;4.30;3.45;;;3.50;89.60;3.90;99809.00;;;;338197;28;90597;-87
2021/01/26 00:30:39;;;;;;;3.95;3.20;;;3.50;89.50;3.80;99813.00;;;;341305;28;84200;-87
2021/01/26 00:30:51;;;;;;;5.30;3.50;;;3.50;89.40;3.90;99819.00;;;;339630;28;92844;-87
2021/01/26 00:31:03;;;;;;;5.90;3.67;;;3.50;89.50;3.90;99822.00;;;;338718;28;84637;-87
2021/01/26 00:31:14;;;;;;;5.43;3.78;;;3.50;89.60;3.90;99808.00;;;;338412;28;92676;-87
2021/01/26 00:31:26;;;;;;;5.60;4.15;;;3.50;89.40;3.80;99822.00;;;;341548;28;84874;-87
2021/01/26 00:31:39;;;;;;;4.70;3.75;;;3.50;89.40;3.90;99822.00;;;;338554;28;88023;-87
2021/01/26 00:31:51;;;;;;;4.43;3.60;;;3.50;89.50;4.00;99813.00;;;;340024;28;84472;-87
2021/01/26 00:32:02;;;;;;;4.68;3.53;;;3.50;89.70;4.00;99806.00;;;;340315;28;91357;-87
2021/01/26 00:32:14;;;;;;;5.90;4.00;;;3.50;89.80;3.90;99810.00;;;;341374;28;84549;-87
2021/01/26 00:32:25;;;;;;;6.10;3.95;;;3.50;89.40;3.90;99811.00;;;;339802;28;90229;-87
2021/01/26 00:32:37;;;;;;;5.90;3.97;;;3.50;89.50;3.90;99817.00;;;;339835;28;83832;-87
2021/01/26 00:32:48;;;;;;;5.10;3.97;;;3.50;89.30;3.90;99819.00;;;;335833;28;92083;-87
2021/01/26 00:33:15;;;;;;;4.60;3.85;;;3.50;89.80;4.00;99820.00;;;;338785;28;83388;-87
2021/01/26 00:33:27;;;;;;;5.03;3.53;;;3.50;89.40;4.00;99825.00;;;;342317;28;91175;-87
2021/01/26 00:33:38;;;;;;;5.00;3.22;;;3.60;89.50;4.00;99811.00;;;;340146;28;85332;-87
2021/01/26 00:33:49;;;;;;;5.35;3.30;;;3.60;89.40;3.90;99822.00;;;;337106;28;92658;-87
2021/01/26 00:34:01;;;;;;;4.22;3.10;;;3.60;89.20;3.90;99825.00;;;;341559;28;83433;-87
2021/01/26 00:34:12;;;;;;;4.88;3.72;;;3.60;89.20;4.00;99829.00;;;;341064;28;91667;-87
2021/01/26 00:34:24;;;;;;;4.68;3.82;;;3.60;89.40;3.90;99821.00;;;;342916;28;83672;-87
2021/01/26 00:34:35;;;;;;;4.68;4.00;;;3.60;89.40;3.90;99820.00;;;;341345;28;88335;-86
2021/01/26 00:34:47;;;;;;;4.25;3.80;;;3.60;89.40;3.80;99827.00;;;;340313;28;83673;-87
2021/01/26 00:34:58;;;;;;;4.22;3.42;;;3.60;89.00;3.80;99817.00;;;;339133;28;90506;-87
2021/01/26 00:35:11;;;;;;;4.03;3.28;;;3.60;89.00;3.90;99827.00;;;;341008;28;84556;-87
2021/01/26 00:35:23;;;;;;;4.50;3.28;;;3.50;89.20;3.90;99817.00;;;;338466;28;91961;-87
2021/01/26 00:35:34;;;;;;;4.63;3.50;;;3.60;89.40;3.90;99820.00;;;;337165;28;82557;-88
2021/01/26 00:35:46;;;;;;;5.65;3.88;;;3.60;89.40;4.00;99812.00;;;;339491;28;92067;-87
2021/01/26 00:35:57;;;;;;;5.20;3.75;;;3.60;89.40;3.80;99828.00;;;;341507;28;83411;-87
2021/01/26 00:36:09;;;;;;;4.82;3.33;;;3.60;89.30;3.80;99826.00;;;;339769;28;90786;-87
2021/01/26 00:36:21;;;;;;;4.43;3.20;;;3.50;89.10;3.80;99825.00;;;;341392;28;84541;-87
2021/01/26 00:36:32;;;;;;;5.10;3.67;;;3.50;89.00;3.80;99823.00;;;;339973;28;87538;-87
2021/01/26 00:36:43;;;;;;;5.88;3.80;;;3.50;89.00;3.80;99827.00;;;;341290;28;82767;-86
2021/01/26 00:36:55;;;;;;;5.80;3.67;;;3.50;89.20;3.70;99821.00;;;;337222;28;91725;-87
2021/01/26 00:37:06;;;;;;;5.32;3.40;;;3.50;89.10;3.80;99821.00;;;;337352;28;84639;-87
2021/01/26 00:37:17;;;;;;;5.20;3.70;;;3.50;89.10;3.70;99830.00;;;;339711;28;91893;-87
2021/01/26 00:37:29;;;;;;;5.06;3.86;;;3.50;89.10;3.60;99825.00;;;;340230;28;82799;-87
2021/01/26 00:37:41;;;;;;;4.53;3.67;;;3.40;89.10;3.70;99826.00;;;;339730;28;90944;-86
2021/01/26 00:37:52;;;;;;;4.93;3.90;;;3.40;89.30;3.80;99820.00;;;;341385;28;84885;-87
2021/01/26 00:38:04;;;;;;;4.78;3.75;;;3.40;89.40;3.80;99825.00;;;;340477;28;88246;-87
2021/01/26 00:38:15;;;;;;;4.68;3.58;;;3.40;89.40;3.80;99832.00;;;;341361;28;84714;-88
2021/01/26 00:38:27;;;;;;;4.80;3.58;;;3.40;89.50;3.70;99826.00;;;;341026;28;91139;-87
2021/01/26 00:38:38;;;;;;;4.15;3.58;;;3.40;89.50;3.70;99819.00;;;;342933;28;83417;-87
2021/01/26 00:38:49;;;;;;;4.32;3.78;;;3.40;89.90;3.80;99826.00;;;;339745;28;92496;-87
2021/01/26 00:39:01;;;;;;;5.07;3.85;;;3.40;89.80;3.80;99825.00;;;;340096;28;84655;-87
2021/01/26 00:39:12;;;;;;;5.85;4.00;;;3.40;89.60;3.80;99829.00;;;;339827;28;90807;-87
2021/01/26 00:39:24;;;;;;;5.25;3.83;;;3.40;89.50;3.70;99834.00;;;;342831;28;83213;-87
2021/01/26 00:39:35;;;;;;;4.82;3.67;;;3.40;89.40;3.70;99825.00;;;;339640;28;91956;-87
2021/01/26 00:39:46;;;;;;;5.47;3.70;;;3.40;89.40;3.60;99828.00;;;;343991;28;84792;-87
2021/01/26 00:39:58;;;;;;;6.05;4.13;;;3.30;89.30;3.60;99827.00;;;;339891;28;89443;-87
2021/01/26 00:40:10;;;;;;;5.50;4.07;;;3.30;89.20;3.60;99829.00;;;;340240;28;82539;-87
2021/01/26 00:40:21;;;;;;;5.28;3.78;;;3.30;89.40;3.70;99820.00;;;;339920;28;88164;-87
2021/01/26 00:40:33;;;;;;;5.22;3.67;;;3.30;89.40;3.70;99824.00;;;;341450;28;84731;-87
2021/01/26 00:40:44;;;;;;;4.60;3.80;;;3.30;89.60;3.70;99825.00;;;;341198;28;92012;-87
2021/01/26 00:40:55;;;;;;;4.68;3.72;;;3.30;89.70;3.80;99826.00;;;;341273;28;84553;-87
2021/01/26 00:41:07;;;;;;;4.53;3.53;;;3.30;89.90;3.70;99827.00;;;;342173;28;91701;-87
2021/01/26 00:41:18;;;;;;;4.30;3.53;;;3.30;89.80;3.80;99832.00;;;;341357;28;84236;-87
2021/01/26 00:41:30;;;;;;;4.50;3.85;;;3.30;89.80;3.70;99835.00;;;;339494;28;90791;-87
2021/01/26 00:41:42;;;;;;;4.57;3.90;;;3.30;89.80;3.70;99833.00;;;;340054;28;84388;-87
2021/01/26 00:41:53;;;;;;;5.00;3.83;;;3.30;89.80;3.70;99828.00;;;;339843;28;92031;-87
2021/01/26 00:42:05;;;;;;;5.22;3.88;;;3.30;89.90;3.70;99834.00;;;;342757;28;83480;-87
2021/01/26 00:42:16;;;;;;;4.98;3.96;;;3.30;90.00;3.70;99828.00;;;;339768;28;91364;-87
2021/01/26 00:42:29;;;;;;;4.80;4.03;;;3.30;90.00;3.80;99821.00;;;;341386;28;84956;-87
2021/01/26 00:42:41;;;;;;;4.70;3.90;;;3.30;90.00;3.80;99827.00;;;;338553;28;91424;-87
2021/01/26 00:42:52;;;;;;;4.57;3.50;;;3.30;89.70;3.80;99835.00;;;;340140;28;85208;-87
2021/01/26 00:43:04;;;;;;;4.40;3.47;;;3.30;89.60;3.80;99831.00;;;;342419;28;91479;-87
2021/01/26 00:43:16;;;;;;;4.38;3.67;;;3.30;89.60;3.70;99833.00;;;;341500;28;83454;-87
2021/01/26 00:43:28;;;;;;;6.22;4.06;;;3.30;89.70;3.80;99833.00;;;;338459;28;89382;-87
2021/01/26 00:43:39;;;;;;;6.28;3.85;;;3.40;89.80;3.80;99835.00;;;;341066;28;85101;-87
2021/01/26 00:43:51;;;;;;;5.75;3.58;;;3.30;89.90;3.80;99833.00;;;;342375;28;92426;-88
2021/01/26 00:44:03;;;;;;;4.65;3.78;;;3.30;89.80;3.80;99833.00;;;;339305;28;83751;-87
2021/01/26 00:44:15;;;;;;;4.90;4.00;;;3.30;89.80;3.80;99829.00;;;;340420;28;87573;-87
2021/01/26 00:44:26;;;;;;;5.28;4.28;;;3.30;89.90;3.80;99831.00;;;;338722;28;84326;-87
2021/01/26 00:44:37;;;;;;;5.28;3.97;;;3.30;90.00;3.90;99837.00;;;;339785;28;92372;-87
2021/01/26 00:44:49;;;;;;;5.93;4.05;;;3.40;90.00;3.90;99833.00;;;;341566;28;84419;-87
2021/01/26 00:45:00;;;;;;;6.03;3.70;;;3.40;90.00;3.90;99826.00;;;;341236;28;92908;-87
2021/01/26 00:45:13;;;;;;;5.85;3.83;;;3.40;90.00;3.90;99838.00;;;;340008;28;84902;-87
2021/01/26 00:45:25;;;;;;;4.38;3.65;;;3.40;90.00;3.90;99830.00;;;;343728;28;92495;-87
2021/01/26 00:45:37;;;;;;;5.38;3.78;;;3.40;90.00;3.90;99830.00;;;;341481;28;84601;-87
2021/01/26 00:45:48;;;;;;;5.75;3.70;;;3.40;90.00;3.70;99841.00;;;;341172;28;89068;-87
2021/01/26 00:46:00;;;;;;;5.28;3.95;;;3.40;89.50;3.60;99827.00;;;;338813;28;83374;-87
2021/01/26 00:46:11;;;;;;;5.18;3.90;;;3.40;89.30;3.60;99826.00;;;;339775;28;91578;-88
2021/01/26 00:46:23;;;;;;;4.95;3.83;;;3.40;89.30;3.70;99836.00;;;;340131;28;83724;-87
2021/01/26 00:46:34;;;;;;;5.60;3.92;;;3.30;89.30;3.70;99837.00;;;;338415;28;90688;-87
2021/01/26 00:46:46;;;;;;;5.75;4.03;;;3.30;89.30;3.70;99836.00;;;;341394;28;83380;-87
2021/01/26 00:46:57;;;;;;;5.50;3.95;;;3.40;89.50;3.80;99827.00;;;;340962;28;92199;-87
2021/01/26 00:47:09;;;;;;;5.50;4.10;;;3.30;90.10;3.80;99827.00;;;;342635;28;84986;-87
2021/01/26 00:47:20;;;;;;;5.00;4.20;;;3.40;90.00;3.90;99843.00;;;;338438;28;90503;-87
2021/01/26 00:47:32;;;;;;;5.95;4.60;;;3.40;90.00;3.90;99835.00;;;;340567;28;84599;-87
2021/01/26 00:47:44;;;;;;;6.05;4.28;;;3.40;90.00;3.80;99828.00;;;;339580;28;91038;-87
2021/01/26 00:47:56;;;;;;;6.45;4.50;;;3.40;90.00;3.70;99829.00;;;;341454;28;84531;-87
2021/01/26 00:48:10;;;;;;;4.95;3.88;;;3.30;89.60;3.80;99832.00;;;;338437;28;92417;-87
2021/01/26 00:48:22;;;;;;;5.25;4.18;;;3.30;89.70;3.80;99842.00;;;;337490;28;84664;-87
2021/01/26 00:48:33;;;;;;;5.00;4.18;;;3.30;89.80;3.90;99837.00;;;;338461;28;92459;-87
2021/01/26 00:48:45;;;;;;;4.65;4.15;;;3.40;90.00;3.90;99834.00;;;;338800;28;83515;-87
2021/01/26 00:48:56;;;;;;;4.75;3.88;;;3.40;90.10;4.00;99834.00;;;;338275;28;91953;-87
2021/01/26 00:49:08;;;;;;;5.18;4.10;;;3.40;90.10;4.00;99828.00;;;;340031;28;84510;-87
2021/01/26 00:49:19;;;;;;;5.22;4.20;;;3.40;90.10;3.90;99831.00;;;;339875;28;89354;-87
2021/01/26 00:49:30;;;;;;;4.93;3.95;;;3.40;90.00;4.00;99839.00;;;;338908;28;83575;-87
2021/01/26 00:49:42;;;;;;;5.28;4.03;;;3.40;90.00;4.00;99834.00;;;;339800;28;88629;-87
2021/01/26 00:49:53;;;;;;;5.13;4.00;;;3.40;90.00;4.00;99834.00;;;;341549;28;83474;-87
2021/01/26 00:50:07;;;;;;;5.50;4.13;;;3.50;90.00;4.00;99828.00;;;;339219;28;90828;-87
2021/01/26 00:50:19;;;;;;;5.10;3.92;;;3.50;90.00;4.10;99832.00;;;;339939;28;84421;-87
2021/01/26 00:50:30;;;;;;;4.50;3.85;;;3.50;90.10;4.00;99837.00;;;;339557;28;92044;-87
2021/01/26 00:50:42;;;;;;;4.80;4.05;;;3.50;90.00;3.80;99838.00;;;;340127;28;84437;-87
2021/01/26 00:50:53;;;;;;;5.38;3.97;;;3.50;89.80;3.80;99834.00;;;;339740;28;91943;-87
2021/01/26 00:51:05;;;;;;;5.13;3.80;;;3.50;89.60;3.90;99830.00;;;;337832;28;83608;-87
2021/01/26 00:51:16;;;;;;;4.65;3.67;;;3.50;89.70;3.90;99826.00;;;;339797;28;90617;-87
2021/01/26 00:51:27;;;;;;;4.38;3.75;;;3.50;89.70;4.00;99833.00;;;;338877;28;83246;-87
2021/01/26 00:51:39;;;;;;;4.53;3.70;;;3.60;89.50;4.00;99833.00;;;;342294;28;90576;-87
2021/01/26 00:51:50;;;;;;;4.85;3.97;;;3.50;89.30;4.00;99837.00;;;;344147;28;83469;-87
2021/01/26 00:52:02;;;;;;;5.30;4.13;;;3.60;89.40;3.90;99834.00;;;;341139;28;91463;-87
2021/01/26 00:52:13;;;;;;;5.40;4.03;;;3.60;89.30;4.00;99829.00;;;;341342;28;83539;-87
2021/01/26 00:52:25;;;;;;;5.25;3.67;;;3.50;89.50;4.00;99832.00;;;;338491;28;89541;-87
2021/01/26 00:52:36;;;;;;;5.20;3.85;;;3.50;89.60;4.00;99834.00;;;;341349;28;85581;-87
2021/01/26 00:52:48;;;;;;;5.15;3.92;;;3.60;89.70;4.00;99832.00;;;;339865;28;90667;-87
2021/01/26 00:52:59;;;;;;;5.07;3.78;;;3.60;89.70;4.10;99834.00;;;;340566;28;84486;-88
2021/01/26 00:53:11;;;;;;;4.65;3.30;;;3.60;89.80;4.10;99827.00;;;;339442;28;91997;-87
2021/01/26 00:53:23;;;;;;;5.40;3.85;;;3.60;89.70;4.10;99836.00;;;;342794;28;84224;-87
2021/01/26 00:53:35;;;;;;;5.68;4.20;;;3.60;89.70;4.10;99837.00;;;;339707;28;92375;-87
2021/01/26 00:53:46;;;;;;;5.65;4.15;;;3.70;89.70;4.10;99835.00;;;;342781;28;83442;-87
2021/01/26 00:53:58;;;;;;;5.00;4.15;;;3.70;89.60;4.10;99838.00;;;;340975;28;91056;-87
2021/01/26 00:54:09;;;;;;;4.60;3.97;;;3.70;89.40;4.00;99840.00;;;;342685;28;84380;-87
2021/01/26 00:54:21;;;;;;;4.55;3.83;;;3.70;89.20;4.00;99836.00;;;;339760;28;92459;-87
2021/01/26 00:54:32;;;;;;;4.80;3.65;;;3.70;89.50;4.10;99837.00;;;;338903;28;83866;-87